Terminal Aerodrome Forecast
Issued by NWS Blacksburg, VA

Current Version | Previous Version | Text Only | Print | Product List | Glossary Off
Versions: 1 2 3 4 5 6 7 8 9 10 11 12 13 14 15 16 17 18

000
FTUS41 KRNK 142330
TAFBLF
TAF
KBLF 142330Z 1500/1524 22008KT P6SM VCSH SCT020
     FM150130 22008KT 3SM RA BR OVC008
     FM150800 25011KT P6SM VCSH OVC003 WS020/26040KT
     FM151400 25013G21KT P6SM VCSH BKN010
     FM152200 25013G21KT P6SM BKN020=

USA.gov is the U.S. government's official web portal to all federal, state and local government web resources and services.